Time;durP1;ratioP1;P1;durP2;ratioP2;P2;SDS_P1;SDS_P2;PMS_P1;PMS_P2;Temp;Humidity;BMP_temperature;BMP_pressure;BME280_temperature;BME280_humidity;BME280_pressure;Samples;Min_cycle;Max_cycle;Signal;HPM_P1;HPM_P2
2024/01/05 00:00:31;;;;;;;0.10;0.10;;;;;;;7.18;100.00;98001.19;5137525;27;20201;-53
2024/01/05 00:03:18;;;;;;;0.00;0.00;;;;;;;7.13;100.00;97997.19;5136545;27;20216;-52
2024/01/05 00:06:05;;;;;;;0.00;0.00;;;;;;;7.28;100.00;97985.59;5136690;27;20311;-53
2024/01/05 00:08:53;;;;;;;0.10;0.10;;;;;;;7.17;100.00;97982.88;5138364;27;20239;-53
2024/01/05 00:11:40;;;;;;;0.00;0.00;;;;;;;7.25;100.00;97979.72;5136501;27;20193;-53
2024/01/05 00:14:29;;;;;;;0.00;0.00;;;;;;;7.23;100.00;97976.34;5136872;27;20197;-53
2024/01/05 00:17:16;;;;;;;0.00;0.00;;;;;;;7.32;100.00;97978.31;5136253;27;20299;-52
2024/01/05 00:20:06;;;;;;;0.10;0.10;;;;;;;7.27;100.00;97970.75;5151287;27;20211;-53
2024/01/05 00:22:53;;;;;;;0.10;0.10;;;;;;;7.33;100.00;97967.69;5157048;27;20197;-53
2024/01/05 00:25:41;;;;;;;0.00;0.00;;;;;;;7.24;100.00;97956.94;5156129;27;20197;-52
2024/01/05 00:28:29;;;;;;;0.00;0.00;;;;;;;7.13;100.00;97952.44;5153184;27;20221;-53
2024/01/05 00:31:18;;;;;;;0.00;0.00;;;;;;;7.32;100.00;97949.34;5136122;27;20189;-53
2024/01/05 00:34:04;;;;;;;0.00;0.00;;;;;;;7.39;100.00;97953.25;5136081;27;20268;-52
2024/01/05 00:36:51;;;;;;;0.00;0.00;;;;;;;7.22;100.00;97950.94;5135896;27;20193;-53
2024/01/05 00:39:38;;;;;;;0.00;0.00;;;;;;;7.06;100.00;97948.56;5147658;27;20277;-53
2024/01/05 00:42:25;;;;;;;0.10;0.10;;;;;;;7.22;100.00;97950.94;5146587;27;20192;-53
2024/01/05 00:45:15;;;;;;;0.00;0.00;;;;;;;7.15;100.00;97940.88;5135741;27;20287;-53
2024/01/05 00:48:04;;;;;;;0.00;0.00;;;;;;;7.30;100.00;97940.72;5136297;27;20216;-53
2024/01/05 00:50:51;;;;;;;0.00;0.00;;;;;;;7.34;100.00;97934.31;5135437;27;20243;-52
2024/01/05 00:53:39;;;;;;;0.00;0.00;;;;;;;7.29;100.00;97928.50;5135648;27;20201;-52
2024/01/05 00:56:27;;;;;;;0.10;0.10;;;;;;;7.44;100.00;97920.38;5134865;27;20193;-52
2024/01/05 00:59:14;;;;;;;0.00;0.00;;;;;;;7.47;100.00;97904.34;5141763;27;20188;-53
2024/01/05 01:02:02;;;;;;;0.10;0.10;;;;;;;7.27;100.00;97906.72;5135618;27;20214;-53
2024/01/05 01:04:51;;;;;;;0.00;0.00;;;;;;;7.46;100.00;97896.56;5137958;27;20196;-53
2024/01/05 01:07:41;;;;;;;0.00;0.00;;;;;;;7.27;100.00;97886.50;5135224;27;20213;-52
2024/01/05 01:10:27;;;;;;;0.00;0.00;;;;;;;7.34;100.00;97885.13;5153458;27;20192;-53
2024/01/05 01:13:14;;;;;;;0.10;0.10;;;;;;;7.37;100.00;97874.34;5155031;27;20197;-53
2024/01/05 01:16:02;;;;;;;0.00;0.00;;;;;;;7.39;100.00;97875.06;5152412;27;20327;-53
2024/01/05 01:18:51;;;;;;;0.00;0.00;;;;;;;7.26;100.00;97874.28;5151660;27;20185;-53
2024/01/05 01:21:39;;;;;;;0.00;0.00;;;;;;;7.26;100.00;97866.38;5094210;28;20203;-52
2024/01/05 01:24:26;;;;;;;0.00;0.00;;;;;;;7.41;100.00;97859.16;5094108;28;20194;-52
2024/01/05 01:27:13;;;;;;;0.00;0.00;;;;;;;7.40;100.00;97868.84;5093972;28;20195;-53
2024/01/05 01:30:00;;;;;;;0.00;0.00;;;;;;;7.25;100.00;97855.97;5106389;28;20213;-53
2024/01/05 01:32:49;;;;;;;0.00;0.00;;;;;;;7.20;100.00;97860.69;5114432;28;20198;-53
2024/01/05 01:35:40;;;;;;;0.00;0.00;;;;;;;7.23;100.00;97855.19;5112571;28;20238;-53
2024/01/05 01:38:28;;;;;;;0.00;0.00;;;;;;;7.36;100.00;97859.50;5093860;28;20550;-52
2024/01/05 01:41:17;;;;;;;0.10;0.10;;;;;;;7.29;100.00;97852.16;5093844;28;20206;-51
2024/01/05 01:44:05;;;;;;;0.00;0.00;;;;;;;7.26;100.00;97860.28;5092434;28;20211;-53
2024/01/05 01:46:53;;;;;;;0.10;0.10;;;;;;;7.35;100.00;97855.19;5093594;28;20279;-52
2024/01/05 01:49:40;;;;;;;0.00;0.00;;;;;;;7.33;100.00;97848.31;5093569;28;20238;-52
2024/01/05 01:52:32;;;;;;;0.00;0.00;;;;;;;7.36;100.00;97840.22;5093627;28;20669;-53
2024/01/05 01:55:22;;;;;;;0.10;0.10;;;;;;;7.29;100.00;97839.81;5093588;28;20195;-52
2024/01/05 01:58:10;;;;;;;0.00;0.00;;;;;;;7.24;100.00;97841.94;5092311;28;20199;-53
2024/01/05 02:00:58;;;;;;;0.00;0.00;;;;;;;7.20;100.00;97839.63;5093427;28;20202;-52
2024/01/05 02:03:47;;;;;;;0.00;0.00;;;;;;;7.39;100.00;97838.19;5092479;28;20207;-52
2024/01/05 02:06:34;;;;;;;0.00;0.00;;;;;;;7.38;100.00;97835.69;5092747;28;20193;-52
2024/01/05 02:09:21;;;;;;;0.10;0.10;;;;;;;7.27;100.00;97827.72;5092670;28;20226;-53
2024/01/05 02:12:13;;;;;;;0.00;0.00;;;;;;;7.28;100.00;97840.78;5093539;28;20273;-52
2024/01/05 02:15:00;;;;;;;0.00;0.00;;;;;;;7.21;100.00;97842.16;5099762;28;20336;-53
2024/01/05 02:17:47;;;;;;;0.10;0.10;;;;;;;7.17;100.00;97836.28;5094828;28;20245;-53
2024/01/05 02:20:34;;;;;;;0.00;0.00;;;;;;;7.28;100.00;97835.50;5131565;27;20228;-53
2024/01/05 02:23:24;;;;;;;0.10;0.10;;;;;;;7.09;100.00;97829.88;5153085;27;20196;-52
2024/01/05 02:26:11;;;;;;;0.00;0.00;;;;;;;7.24;100.00;97833.19;5144996;27;20285;-53
2024/01/05 02:28:59;;;;;;;0.10;0.10;;;;;;;7.28;100.00;97826.75;5148045;27;20212;-53
2024/01/05 02:31:47;;;;;;;0.00;0.00;;;;;;;7.14;100.00;97830.38;5146732;27;20683;-53
2024/01/05 02:34:34;;;;;;;0.03;0.03;;;;;;;7.36;100.00;97825.25;5133614;27;20193;-53
2024/01/05 02:37:21;;;;;;;0.00;0.00;;;;;;;7.25;100.00;97822.56;5132555;27;20671;-53
2024/01/05 02:40:11;;;;;;;0.10;0.10;;;;;;;7.28;100.00;97824.13;5133871;27;20189;-52
2024/01/05 02:42:58;;;;;;;0.00;0.00;;;;;;;7.49;100.00;97814.66;5150450;27;20189;-53
2024/01/05 02:45:47;;;;;;;0.00;0.00;;;;;;;7.40;100.00;97813.53;5154527;27;20310;-53
2024/01/05 02:48:38;;;;;;;0.10;0.10;;;;;;;7.36;100.00;97809.47;5154416;27;20303;-53
2024/01/05 02:51:29;;;;;;;0.00;0.00;;;;;;;7.31;100.00;97798.41;5150274;27;20189;-53
2024/01/05 02:54:20;;;;;;;0.00;0.00;;;;;;;7.41;100.00;97795.94;5133683;28;20190;-52
2024/01/05 02:57:12;;;;;;;0.00;0.00;;;;;;;7.36;100.00;97787.56;5133737;28;20246;-52
2024/01/05 03:00:04;;;;;;;0.00;0.00;;;;;;;7.32;100.00;97779.00;5132276;28;20295;-52
2024/01/05 03:02:56;;;;;;;0.00;0.00;;;;;;;7.38;100.00;97780.38;5148915;27;20185;-52
2024/01/05 03:05:44;;;;;;;0.10;0.10;;;;;;;7.31;100.00;97779.97;5154335;27;20619;-53
2024/01/05 03:08:32;;;;;;;0.00;0.00;;;;;;;7.33;100.00;97771.94;5149432;27;20208;-53
2024/01/05 03:11:23;;;;;;;0.00;0.00;;;;;;;7.40;100.00;97770.56;5151122;27;20237;-52
2024/01/05 03:14:15;;;;;;;0.00;0.00;;;;;;;7.35;100.00;97772.69;5134888;27;20281;-52
2024/01/05 03:17:07;;;;;;;0.00;0.00;;;;;;;7.29;100.00;97765.25;5137695;27;20236;-52
2024/01/05 03:20:04;;;;;;;0.00;0.00;;;;;;;7.25;100.00;97761.16;5137433;27;20268;-53
2024/01/05 03:22:57;;;;;;;0.00;0.00;;;;;;;7.19;100.00;97765.06;5153058;27;20195;-53
2024/01/05 03:25:47;;;;;;;0.00;0.00;;;;;;;7.33;100.00;97767.53;5157929;27;20196;-52
2024/01/05 03:28:38;;;;;;;0.00;0.00;;;;;;;7.28;100.00;97767.03;5156865;27;20204;-53
2024/01/05 03:31:34;;;;;;;0.00;0.00;;;;;;;7.23;100.00;97765.69;5154387;27;20259;-53
2024/01/05 03:34:24;;;;;;;0.00;0.00;;;;;;;7.13;100.00;97760.25;5137207;27;20330;-53
2024/01/05 03:37:12;;;;;;;0.00;0.00;;;;;;;7.23;100.00;97765.69;5136362;27;20201;-53
2024/01/05 03:40:01;;;;;;;0.10;0.10;;;;;;;7.24;100.00;97762.09;5137273;27;20189;-53
2024/01/05 03:42:52;;;;;;;0.10;0.10;;;;;;;7.38;100.00;97757.50;5149182;27;20251;-53
2024/01/05 03:45:42;;;;;;;0.00;0.00;;;;;;;7.32;100.00;97755.31;5136993;27;20684;-52
2024/01/05 03:48:31;;;;;;;0.00;0.00;;;;;;;7.36;100.00;97750.69;5136939;27;20201;-53
2024/01/05 03:51:22;;;;;;;0.00;0.00;;;;;;;7.43;100.00;97736.94;5138538;27;20182;-53
2024/01/05 03:54:16;;;;;;;0.00;0.00;;;;;;;7.40;100.00;97733.69;5149692;27;20201;-53
2024/01/05 03:57:07;;;;;;;0.00;0.00;;;;;;;7.35;100.00;97730.56;5135817;27;20201;-53
2024/01/05 03:59:57;;;;;;;0.00;0.00;;;;;;;7.55;100.00;97721.19;5145527;27;20184;-52
2024/01/05 04:02:45;;;;;;;0.00;0.00;;;;;;;7.46;100.00;97712.16;5143250;27;20193;-53
2024/01/05 04:05:33;;;;;;;0.00;0.00;;;;;;;7.55;100.00;97711.47;5136614;27;20186;-53
2024/01/05 04:08:20;;;;;;;0.00;0.00;;;;;;;7.33;100.00;97704.31;5136599;27;20210;-52
2024/01/05 04:11:07;;;;;;;0.00;0.00;;;;;;;7.44;100.00;97691.22;5138061;27;20188;-52
2024/01/05 04:13:54;;;;;;;0.00;0.00;;;;;;;7.45;100.00;97689.41;5135504;27;20664;-52
2024/01/05 04:16:41;;;;;;;0.00;0.00;;;;;;;7.30;100.00;97685.28;5139830;27;20197;-53
2024/01/05 04:19:29;;;;;;;0.00;0.00;;;;;;;7.31;100.00;97684.31;5153391;27;20231;-53
2024/01/05 04:22:18;;;;;;;0.00;0.00;;;;;;;7.31;100.00;97684.31;5153611;27;20254;-52
2024/01/05 04:25:05;;;;;;;0.00;0.00;;;;;;;7.24;100.00;97675.19;5157050;27;20201;-53
2024/01/05 04:27:52;;;;;;;0.00;0.00;;;;;;;7.08;100.00;97676.34;5155536;27;20323;-52
2024/01/05 04:30:39;;;;;;;0.00;0.00;;;;;;;7.34;100.00;97676.22;5156631;27;20224;-52
2024/01/05 04:33:26;;;;;;;0.00;0.00;;;;;;;7.18;100.00;97664.19;5137158;27;20201;-52
2024/01/05 04:36:15;;;;;;;0.00;0.00;;;;;;;7.13;100.00;97676.84;5135118;27;20197;-53
2024/01/05 04:39:04;;;;;;;0.00;0.00;;;;;;;7.25;100.00;97669.84;5135974;27;20262;-53
2024/01/05 04:41:51;;;;;;;0.00;0.00;;;;;;;7.13;100.00;97678.63;5141873;27;20549;-52
2024/01/05 04:44:38;;;;;;;0.00;0.00;;;;;;;7.13;100.00;97679.47;5155412;27;20220;-52
2024/01/05 04:47:25;;;;;;;0.00;0.00;;;;;;;7.16;100.00;97671.38;5156587;27;20197;-53
2024/01/05 04:50:12;;;;;;;0.00;0.00;;;;;;;7.14;100.00;97670.63;5156136;27;20217;-53
2024/01/05 04:52:58;;;;;;;0.00;0.00;;;;;;;7.08;100.00;97657.91;5141087;27;20235;-53
2024/01/05 04:55:47;;;;;;;0.00;0.00;;;;;;;7.05;100.00;97660.78;5135811;27;20205;-53
2024/01/05 04:58:33;;;;;;;0.00;0.00;;;;;;;7.08;100.00;97652.66;5134586;27;20189;-52
2024/01/05 05:01:20;;;;;;;0.00;0.00;;;;;;;7.14;100.00;97649.56;5136760;27;20252;-52
2024/01/05 05:04:07;;;;;;;0.00;0.00;;;;;;;7.09;100.00;97640.34;5156322;27;20197;-53
2024/01/05 05:06:54;;;;;;;0.00;0.00;;;;;;;7.10;100.00;97639.38;5140425;27;20201;-53
2024/01/05 05:09:41;;;;;;;0.00;0.00;;;;;;;7.17;100.00;97644.06;5135377;27;20698;-53
2024/01/05 05:12:29;;;;;;;0.00;0.00;;;;;;;7.27;100.00;97638.97;5146089;27;20907;-53
2024/01/05 05:15:22;;;;;;;0.00;0.00;;;;;;;7.18;100.00;97644.91;5155458;27;20277;-53
2024/01/05 05:18:11;;;;;;;0.00;0.00;;;;;;;7.02;100.00;97653.09;5155930;27;20234;-52
2024/01/05 05:20:58;;;;;;;0.00;0.00;;;;;;;6.98;100.00;97654.28;5155582;27;20725;-52
2024/01/05 05:23:45;;;;;;;0.00;0.00;;;;;;;6.99;100.00;97657.75;5146598;27;20197;-53
2024/01/05 05:26:32;;;;;;;0.00;0.00;;;;;;;6.87;100.00;97664.78;5135049;27;20258;-53
2024/01/05 05:29:20;;;;;;;0.00;0.00;;;;;;;6.95;100.00;97672.06;5152414;27;20201;-53
2024/01/05 05:32:07;;;;;;;0.00;0.00;;;;;;;6.83;100.00;97664.13;5148159;27;20267;-52
2024/01/05 05:34:54;;;;;;;0.07;0.07;;;;;;;6.92;100.00;97653.88;5134813;27;20194;-52
2024/01/05 05:37:41;;;;;;;0.00;0.00;;;;;;;7.06;100.00;97649.31;5134651;27;20193;-53
2024/01/05 05:40:27;;;;;;;0.00;0.00;;;;;;;6.78;100.00;97661.00;5144768;27;20185;-53
2024/01/05 05:43:15;;;;;;;0.07;0.07;;;;;;;6.76;100.00;97655.03;5137269;27;20209;-53
2024/01/05 05:46:03;;;;;;;0.00;0.00;;;;;;;6.70;100.00;97655.47;5134660;27;20725;-53
2024/01/05 05:48:50;;;;;;;0.10;0.10;;;;;;;6.74;100.00;97651.66;5143348;27;20678;-52
2024/01/05 05:51:37;;;;;;;0.00;0.00;;;;;;;6.82;100.00;97670.34;5151882;27;20271;-53
2024/01/05 05:54:23;;;;;;;0.03;0.03;;;;;;;6.73;100.00;97667.53;5134384;27;20211;-53
2024/01/05 05:57:12;;;;;;;0.00;0.00;;;;;;;6.82;100.00;97662.47;5133457;27;20205;-52
2024/01/05 05:59:58;;;;;;;0.00;0.00;;;;;;;6.82;100.00;97657.19;5133385;27;20181;-53
2024/01/05 06:02:47;;;;;;;0.00;0.00;;;;;;;7.21;100.00;97662.25;5146829;27;20208;-52
2024/01/05 06:05:34;;;;;;;0.00;0.00;;;;;;;6.93;100.00;97653.78;5155040;27;20235;-52
2024/01/05 06:08:21;;;;;;;0.00;0.00;;;;;;;7.20;100.00;97648.25;5154866;27;20188;-53
2024/01/05 06:11:07;;;;;;;0.10;0.10;;;;;;;7.01;100.00;97645.31;5154861;27;20212;-53
2024/01/05 06:13:54;;;;;;;0.00;0.00;;;;;;;7.01;100.00;97640.88;5132942;27;20239;-53
2024/01/05 06:16:41;;;;;;;0.00;0.00;;;;;;;6.93;100.00;97639.78;5141277;27;20678;-52
2024/01/05 06:19:30;;;;;;;0.00;0.00;;;;;;;7.00;100.00;97659.44;5154557;27;20739;-53
2024/01/05 06:22:17;;;;;;;0.00;0.00;;;;;;;6.77;100.00;97666.38;5146563;27;20291;-53
2024/01/05 06:25:04;;;;;;;0.00;0.00;;;;;;;6.97;100.00;97643.88;5133814;27;20212;-53
2024/01/05 06:27:50;;;;;;;0.00;0.00;;;;;;;6.97;100.00;97651.78;5133081;27;20264;-53
2024/01/05 06:30:37;;;;;;;0.00;0.00;;;;;;;7.02;100.00;97636.47;5133769;27;20339;-53
2024/01/05 06:33:24;;;;;;;0.00;0.00;;;;;;;7.11;100.00;97644.53;5151168;27;20201;-53
2024/01/05 06:36:13;;;;;;;0.00;0.00;;;;;;;7.17;100.00;97641.44;5154549;27;20193;-53
2024/01/05 06:38:59;;;;;;;0.00;0.00;;;;;;;6.97;100.00;97643.88;5154576;27;20196;-53
2024/01/05 06:41:46;;;;;;;0.00;0.00;;;;;;;6.91;100.00;97653.06;5150805;27;20204;-53
2024/01/05 06:44:33;;;;;;;0.00;0.00;;;;;;;6.80;100.00;97642.47;5132718;27;20287;-52
2024/01/05 06:47:20;;;;;;;0.00;0.00;;;;;;;6.79;100.00;97652.16;5133821;28;20201;-53
2024/01/05 06:50:08;;;;;;;0.00;0.00;;;;;;;6.72;100.00;97658.81;5137349;27;20258;-53
2024/01/05 06:52:56;;;;;;;0.00;0.00;;;;;;;6.78;100.00;97665.44;5153511;27;20289;-53
2024/01/05 06:55:43;;;;;;;0.00;0.00;;;;;;;6.72;100.00;97666.72;5157720;27;20193;-53
2024/01/05 06:58:32;;;;;;;0.10;0.10;;;;;;;6.80;100.00;97667.00;5160110;27;20221;-53
2024/01/05 07:01:18;;;;;;;0.00;0.00;;;;;;;6.74;100.00;97664.78;5147040;27;20664;-52
2024/01/05 07:04:07;;;;;;;0.00;0.00;;;;;;;6.77;100.00;97669.03;5159969;27;20272;-52
2024/01/05 07:06:54;;;;;;;0.00;0.00;;;;;;;6.78;100.00;97674.16;5159555;27;20204;-52
2024/01/05 07:09:43;;;;;;;0.00;0.00;;;;;;;6.88;100.00;97675.19;5161165;27;20193;-53
2024/01/05 07:12:29;;;;;;;0.00;0.00;;;;;;;6.93;100.00;97666.94;5147821;27;20181;-52
2024/01/05 07:15:16;;;;;;;0.10;0.10;;;;;;;6.97;100.00;97662.31;5140419;27;20219;-52
2024/01/05 07:18:05;;;;;;;0.00;0.00;;;;;;;6.96;100.00;97674.63;5144098;27;20235;-53
2024/01/05 07:20:52;;;;;;;0.00;0.00;;;;;;;6.87;100.00;97664.78;5149233;27;20229;-53
2024/01/05 07:23:39;;;;;;;0.10;0.10;;;;;;;6.88;100.00;97666.44;5146019;27;20340;-52
2024/01/05 07:26:28;;;;;;;0.00;0.00;;;;;;;6.87;100.00;97655.09;5152975;27;20392;-53
2024/01/05 07:29:14;;;;;;;0.00;0.00;;;;;;;6.82;100.00;97651.94;5158784;27;20318;-52
2024/01/05 07:32:02;;;;;;;0.00;0.00;;;;;;;6.85;100.00;97664.00;5147175;27;20718;-53
2024/01/05 07:34:49;;;;;;;0.00;0.00;;;;;;;6.85;100.00;97661.38;5160748;27;20548;-52
2024/01/05 07:37:37;;;;;;;0.00;0.00;;;;;;;6.84;100.00;97659.72;5157774;27;20208;-52
2024/01/05 07:40:24;;;;;;;0.00;0.00;;;;;;;6.95;100.00;97675.56;5161043;27;20217;-52
2024/01/05 07:43:13;;;;;;;0.10;0.10;;;;;;;6.88;100.00;97666.44;5146448;27;20212;-53
2024/01/05 07:46:02;;;;;;;0.00;0.00;;;;;;;6.96;100.00;97664.09;5140256;27;20198;-53
2024/01/05 07:48:49;;;;;;;0.00;0.00;;;;;;;6.95;100.00;97662.41;5147604;27;20548;-53
2024/01/05 07:51:36;;;;;;;0.00;0.00;;;;;;;7.03;100.00;97656.56;5152568;27;20220;-53
2024/01/05 07:54:27;;;;;;;0.00;0.00;;;;;;;7.16;100.00;97665.25;5141236;27;20259;-52
2024/01/05 07:57:14;;;;;;;0.00;0.00;;;;;;;7.07;100.00;97658.88;5140146;27;20209;-53
2024/01/05 08:00:02;;;;;;;0.00;0.00;;;;;;;6.96;100.00;97661.47;5141393;27;20262;-53
2024/01/05 08:02:50;;;;;;;0.00;0.00;;;;;;;6.92;100.00;97657.34;5147596;27;20185;-52
2024/01/05 08:05:37;;;;;;;0.00;0.00;;;;;;;6.86;100.00;97665.72;5153343;27;20188;-53
2024/01/05 08:08:24;;;;;;;0.00;0.00;;;;;;;6.82;100.00;97653.72;5155229;27;20194;-53
2024/01/05 08:11:11;;;;;;;0.10;0.10;;;;;;;7.04;100.00;97650.34;5157086;27;20352;-53
2024/01/05 08:13:58;;;;;;;0.00;0.00;;;;;;;7.03;100.00;97657.41;5136646;27;20262;-53
2024/01/05 08:16:46;;;;;;;0.10;0.10;;;;;;;7.23;100.00;97658.56;5136596;27;20304;-53
2024/01/05 08:19:33;;;;;;;0.00;0.00;;;;;;;7.37;100.00;97655.75;5137485;27;20232;-53
2024/01/05 08:22:20;;;;;;;0.00;0.00;;;;;;;7.32;100.00;97663.13;5143103;27;20189;-53
2024/01/05 08:25:07;;;;;;;0.00;0.00;;;;;;;7.50;100.00;97660.09;5138798;27;20197;-53
2024/01/05 08:27:54;;;;;;;0.00;0.00;;;;;;;7.27;100.00;97657.41;5136658;27;20243;-53
2024/01/05 08:30:41;;;;;;;0.00;0.00;;;;;;;7.13;100.00;97673.34;5137262;27;20678;-52
2024/01/05 08:33:29;;;;;;;0.00;0.00;;;;;;;7.11;100.00;97654.22;5152418;27;20250;-52
2024/01/05 08:36:17;;;;;;;0.00;0.00;;;;;;;7.22;100.00;97648.97;5157004;27;20185;-52
2024/01/05 08:39:05;;;;;;;0.00;0.00;;;;;;;7.17;100.00;97661.66;5157009;27;20201;-53
2024/01/05 08:41:52;;;;;;;0.00;0.00;;;;;;;7.19;100.00;97662.38;5154472;27;20189;-53
2024/01/05 08:44:40;;;;;;;0.00;0.00;;;;;;;7.15;100.00;97661.78;5134608;27;20193;-52
2024/01/05 08:47:27;;;;;;;0.00;0.00;;;;;;;7.42;100.00;97650.97;5136061;27;20201;-53
2024/01/05 08:50:17;;;;;;;0.00;0.00;;;;;;;7.24;100.00;97643.59;5135852;27;20193;-52
2024/01/05 08:53:04;;;;;;;0.00;0.00;;;;;;;7.56;100.00;97649.09;5147794;27;20221;-52
2024/01/05 08:55:52;;;;;;;0.00;0.00;;;;;;;7.80;100.00;97638.47;5156507;27;20310;-53
2024/01/05 08:58:39;;;;;;;0.00;0.00;;;;;;;7.41;100.00;97635.28;5154934;27;20253;-53
2024/01/05 09:01:27;;;;;;;0.00;0.00;;;;;;;7.44;100.00;97637.69;5153572;27;20770;-52
2024/01/05 09:04:14;;;;;;;0.00;0.00;;;;;;;7.64;100.00;97644.09;5135573;27;20278;-53
2024/01/05 09:07:04;;;;;;;0.00;0.00;;;;;;;7.51;100.00;97640.69;5135612;27;20193;-53
2024/01/05 09:09:51;;;;;;;0.10;0.10;;;;;;;7.52;100.00;97639.72;5135558;27;20271;-53
2024/01/05 09:12:38;;;;;;;0.00;0.00;;;;;;;7.86;100.00;97643.25;5143012;27;20216;-53
2024/01/05 09:15:25;;;;;;;0.00;0.00;;;;;;;7.90;100.00;97629.72;5152629;27;20504;-53
2024/01/05 09:18:13;;;;;;;0.00;0.00;;;;;;;7.74;100.00;97624.81;5150717;27;20265;-53
2024/01/05 09:21:06;;;;;;;0.00;0.00;;;;;;;7.86;100.00;97619.53;5138692;27;20224;-53
2024/01/05 09:23:55;;;;;;;0.07;0.07;;;;;;;7.84;100.00;97635.47;5139422;27;20200;-53
2024/01/05 09:26:43;;;;;;;0.07;0.07;;;;;;;7.95;100.00;97630.22;5148406;27;20385;-53
2024/01/05 09:29:31;;;;;;;0.03;0.03;;;;;;;8.46;100.00;97624.44;5144879;27;20229;-53
2024/01/05 09:32:18;;;;;;;0.00;0.00;;;;;;;8.43;100.00;97618.59;5141005;27;20229;-53
2024/01/05 09:35:08;;;;;;;0.00;0.00;;;;;;;8.85;100.00;97638.84;5152325;27;20254;-53
2024/01/05 09:37:57;;;;;;;0.00;0.00;;;;;;;8.60;100.00;97621.53;5147215;27;20238;-52
2024/01/05 09:40:46;;;;;;;0.00;0.00;;;;;;;8.87;100.00;97618.44;5134806;27;20246;-53
2024/01/05 09:43:39;;;;;;;0.00;0.00;;;;;;;9.15;100.00;97626.75;5134828;27;20699;-53
2024/01/05 09:46:34;;;;;;;0.00;0.00;;;;;;;9.15;100.00;97616.16;5134671;27;20671;-53
2024/01/05 09:49:23;;;;;;;0.00;0.00;;;;;;;9.53;100.00;97609.47;5134322;27;20244;-53
2024/01/05 09:52:12;;;;;;;0.00;0.00;;;;;;;11.28;100.00;97585.16;5137473;27;20217;-53
2024/01/05 09:55:01;;;;;;;0.00;0.00;;;;;;;11.90;100.00;97581.97;5147326;27;20667;-53
2024/01/05 09:57:51;;;;;;;0.00;0.00;;;;;;;10.68;100.00;97577.34;5133426;27;20201;-53
2024/01/05 10:00:44;;;;;;;0.00;0.00;;;;;;;9.63;100.00;97581.31;5134512;27;20193;-53
2024/01/05 10:03:32;;;;;;;0.00;0.00;;;;;;;9.06;100.00;97585.25;5149499;27;20201;-52
2024/01/05 10:06:20;;;;;;;0.00;0.00;;;;;;;8.69;100.00;97590.09;5153867;27;20185;-53
2024/01/05 10:09:07;;;;;;;0.10;0.10;;;;;;;8.70;100.00;97597.88;5140954;27;20212;-53
2024/01/05 10:11:54;;;;;;;0.00;0.00;;;;;;;8.60;100.00;97616.28;5135007;27;20213;-53
2024/01/05 10:14:44;;;;;;;0.00;0.00;;;;;;;8.55;100.00;97612.31;5146737;27;20207;-52
2024/01/05 10:17:34;;;;;;;0.00;0.00;;;;;;;8.43;100.00;97614.13;5150584;27;20196;-52
2024/01/05 10:20:22;;;;;;;0.00;0.00;;;;;;;8.37;100.00;97619.06;5148854;27;20232;-53
2024/01/05 10:23:08;;;;;;;0.00;0.00;;;;;;;8.28;100.00;97612.69;5145675;27;20257;-53
2024/01/05 10:25:55;;;;;;;0.00;0.00;;;;;;;8.36;100.00;97609.47;5154243;27;20185;-53
2024/01/05 10:28:42;;;;;;;0.00;0.00;;;;;;;8.15;100.00;97618.09;5133298;27;20312;-53
2024/01/05 10:31:31;;;;;;;0.00;0.00;;;;;;;8.20;100.00;97625.63;5133910;27;20204;-53
2024/01/05 10:34:18;;;;;;;0.03;0.03;;;;;;;8.12;100.00;97622.78;5147511;27;20189;-53
2024/01/05 10:37:06;;;;;;;0.00;0.00;;;;;;;8.07;100.00;97628.41;5134000;27;20193;-53
2024/01/05 10:39:53;;;;;;;0.00;0.00;;;;;;;8.16;100.00;97621.56;5133832;27;20192;-53
2024/01/05 10:42:41;;;;;;;0.00;0.00;;;;;;;8.33;100.00;97631.63;5141140;27;20318;-53
2024/01/05 10:45:29;;;;;;;0.00;0.00;;;;;;;8.14;100.00;97619.06;5154503;27;20581;-53
2024/01/05 10:48:18;;;;;;;0.00;0.00;;;;;;;8.20;100.00;97628.28;5153733;27;20197;-52
2024/01/05 10:51:06;;;;;;;0.00;0.00;;;;;;;8.14;100.00;97636.69;5152749;27;20287;-53
2024/01/05 10:53:54;;;;;;;0.00;0.00;;;;;;;8.04;100.00;97626.84;5136512;27;20285;-53
2024/01/05 10:56:43;;;;;;;0.00;0.00;;;;;;;8.07;100.00;97624.94;5133787;28;20229;-52
2024/01/05 10:59:30;;;;;;;0.00;0.00;;;;;;;8.01;100.00;97624.47;5132653;28;20193;-53
2024/01/05 11:02:22;;;;;;;0.00;0.00;;;;;;;8.09;100.00;97636.19;5148764;27;20310;-53
2024/01/05 11:05:13;;;;;;;0.00;0.00;;;;;;;8.00;100.00;97620.13;5134086;27;20197;-52
2024/01/05 11:08:02;;;;;;;0.00;0.00;;;;;;;8.11;100.00;97634.31;5135294;27;20201;-53
2024/01/05 11:11:00;;;;;;;0.10;0.10;;;;;;;8.30;100.00;97626.63;5134696;27;20185;-53
2024/01/05 11:14:01;;;;;;;0.00;0.00;;;;;;;8.22;100.00;97629.84;5148026;27;20208;-53
2024/01/05 11:17:15;;;;;;;0.00;0.00;;;;;;;8.20;100.00;97628.28;5150819;27;20196;-52
2024/01/05 11:20:20;;;;;;;0.00;0.00;;;;;;;8.29;100.00;97614.34;5134149;27;20229;-53
2024/01/05 11:23:09;;;;;;;0.10;0.10;;;;;;;8.33;100.00;97602.63;5135897;27;20189;-53
2024/01/05 11:25:56;;;;;;;0.00;0.00;;;;;;;8.32;100.00;97600.94;5145926;27;20271;-53
2024/01/05 11:28:44;;;;;;;0.00;0.00;;;;;;;8.36;100.00;97599.75;5149483;27;20196;-53
2024/01/05 11:31:52;;;;;;;0.00;0.00;;;;;;;8.42;100.00;97606.34;5150455;27;20193;-53
2024/01/05 11:34:40;;;;;;;0.00;0.00;;;;;;;8.39;100.00;97610.06;5132773;28;20675;-53
2024/01/05 11:37:30;;;;;;;0.00;0.00;;;;;;;8.41;100.00;97612.59;5136216;27;20206;-52
2024/01/05 11:40:27;;;;;;;0.00;0.00;;;;;;;8.49;100.00;97594.31;5136694;27;20189;-52
2024/01/05 11:43:35;;;;;;;0.00;0.00;;;;;;;8.51;100.00;97585.34;5146658;27;20197;-53
2024/01/05 11:46:52;;;;;;;0.10;0.10;;;;;;;8.45;100.00;97585.00;5155831;27;20204;-52
2024/01/05 11:49:41;;;;;;;0.00;0.00;;;;;;;8.50;100.00;97581.03;5156992;27;20679;-53
2024/01/05 11:52:30;;;;;;;0.00;0.00;;;;;;;8.55;100.00;97575.38;5152001;27;20243;-53
2024/01/05 11:55:16;;;;;;;0.10;0.10;;;;;;;8.35;100.00;97578.78;5137457;27;20679;-53
2024/01/05 11:58:04;;;;;;;0.10;0.10;;;;;;;8.36;100.00;97585.72;5143103;27;20270;-53
2024/01/05 12:00:51;;;;;;;0.00;0.00;;;;;;;8.24;100.00;97582.25;5147702;27;20311;-53
2024/01/05 12:03:39;;;;;;;0.00;0.00;;;;;;;8.34;100.00;97580.56;5142045;27;20196;-52
2024/01/05 12:06:26;;;;;;;0.00;0.00;;;;;;;8.45;100.00;97585.81;5135984;27;20201;-53
2024/01/05 12:09:18;;;;;;;0.00;0.00;;;;;;;8.33;100.00;97589.44;5137211;27;20191;-53
2024/01/05 12:12:19;;;;;;;0.00;0.00;;;;;;;8.41;100.00;97578.31;5148951;27;20247;-53
2024/01/05 12:15:09;;;;;;;0.00;0.00;;;;;;;8.58;100.00;97572.47;5156928;27;20239;-53
2024/01/05 12:18:03;;;;;;;0.00;0.00;;;;;;;8.53;100.00;97577.31;5136478;27;20201;-53
2024/01/05 12:20:54;;;;;;;0.00;0.00;;;;;;;8.55;100.00;97568.28;5137380;27;20228;-53
2024/01/05 12:23:51;;;;;;;0.00;0.00;;;;;;;8.44;100.00;97576.25;5140274;27;20268;-53
2024/01/05 12:26:39;;;;;;;0.00;0.00;;;;;;;8.41;100.00;97573.88;5137606;27;20189;-53
2024/01/05 12:29:27;;;;;;;0.00;0.00;;;;;;;8.44;100.00;97570.13;5136201;27;20190;-53
2024/01/05 12:32:14;;;;;;;0.00;0.00;;;;;;;8.53;100.00;97570.22;5136138;27;20207;-53
2024/01/05 12:35:01;;;;;;;0.00;0.00;;;;;;;8.43;100.00;97565.81;5156154;27;20290;-52
2024/01/05 12:37:52;;;;;;;0.00;0.00;;;;;;;8.53;100.00;97569.38;5154305;27;20323;-53
2024/01/05 12:40:41;;;;;;;0.00;0.00;;;;;;;8.56;100.00;97562.03;5155559;27;20197;-53
2024/01/05 12:43:29;;;;;;;0.00;0.00;;;;;;;8.86;100.00;97565.78;5141464;27;20205;-53
2024/01/05 12:46:16;;;;;;;0.00;0.00;;;;;;;8.97;100.00;97565.72;5141495;27;20192;-53
2024/01/05 12:49:18;;;;;;;0.00;0.00;;;;;;;9.05;100.00;97567.72;5153698;27;20200;-53
2024/01/05 12:52:05;;;;;;;0.00;0.00;;;;;;;8.75;100.00;97563.19;5154255;27;20192;-53
2024/01/05 12:54:52;;;;;;;0.00;0.00;;;;;;;8.82;100.00;97562.56;5133701;27;20221;-53
2024/01/05 12:57:39;;;;;;;0.00;0.00;;;;;;;8.88;100.00;97563.88;5133994;27;20194;-52
2024/01/05 13:00:28;;;;;;;0.00;0.00;;;;;;;9.09;100.00;97555.97;5133595;27;20323;-53
2024/01/05 13:03:16;;;;;;;0.00;0.00;;;;;;;8.94;100.00;97557.22;5142164;27;20254;-53
2024/01/05 13:06:07;;;;;;;0.00;0.00;;;;;;;9.26;100.00;97563.28;5135587;27;20228;-53
2024/01/05 13:08:55;;;;;;;0.00;0.00;;;;;;;8.96;100.00;97552.66;5142237;27;20193;-53
2024/01/05 13:11:51;;;;;;;0.00;0.00;;;;;;;8.96;100.00;97556.13;5154742;27;20201;-53
2024/01/05 13:14:38;;;;;;;0.00;0.00;;;;;;;9.12;100.00;97553.88;5133789;27;20212;-53